Latest Coastal Weather Observations for Cape Wessel

IDD60701

Issued at 3:31 pm CST Wednesday 26 April 2017 (issued every 10 minutes, with the page automatically refreshed every 10 minutes)

About coastal observations | Map of coastal stations | Coastal observations for NT | Marine services | Other Formats
Station Details ID: 200786 Name: CAPE WESSEL Lat: -11.00 Lon: 136.76 Height: 18.0 m
Data from the previous 72 hours. | See also: Recent months at Cape Wessel
Date/Time
CST
Temp
°C
Wind Pressure Rain since
9am
mm
Weather Cloud Vis
km
Sea
Height
m
Swell
Dir  Spd
kts
Gust
kts
hPa Trend Height
m
Period
s
Dir
26/03:00pm 29.7 E 10 13 1008.2 - 0.2 - - - - - - -
26/02:30pm 30.8 E 10 13 1008.2 - 0.2 - - - - - - -
26/02:00pm 32.0 ENE 10 14 1008.4 - 0.2 - - - - - - -
26/01:30pm 31.3 E 10 13 1008.7 - 0.2 - - - - - - -
26/01:00pm 31.2 E 9 11 1009.5 - 0.2 - - - - - - -
26/12:30pm 31.3 E 11 14 1009.9 - 0.2 - - - - - - -
26/12:00pm 30.7 E 13 17 1010.2 - 0.2 - - - - - - -
26/11:30am 30.1 E 15 18 1010.6 - 0.2 - - - - - - -
26/11:00am 29.8 E 16 20 1010.9 - 0.2 - - - - - - -
26/10:30am 29.6 E 15 19 1011.2 - 0.0 - - - - - - -
26/10:00am 30.5 ENE 14 19 1011.5 - 0.0 - - - - - - -
26/09:30am 30.2 ENE 13 19 1011.5 - 0.0 - - - - - - -
26/09:00am 29.3 ENE 15 19 1011.4 - 35.4 - - - - - - -
26/08:30am 28.7 ENE 16 19 1010.9 - 35.4 - - - - - - -
26/08:00am 28.6 ENE 13 17 1010.5 - 35.4 - - - - - - -
26/07:30am 27.6 E 13 16 1010.1 - 35.4 - - - - - - -
26/07:00am 27.2 ENE 15 19 1009.8 - 35.4 - - - - - - -
26/06:30am 26.9 ENE 15 18 1009.7 - 35.4 - - - - - - -
26/06:00am 26.7 ENE 14 17 1009.4 - 35.4 - - - - - - -
26/05:30am 26.7 ENE 13 17 1009.4 - 35.4 - - - - - - -
26/05:00am 26.8 E 14 18 1009.2 - 35.4 - - - - - - -
26/04:30am 26.6 E 13 17 1009.0 - 35.4 - - - - - - -
26/04:00am 26.5 E 12 16 1008.9 - 35.4 - - - - - - -
26/03:30am 26.7 E 11 14 1008.7 - 35.4 - - - - - - -
26/03:00am 26.5 E 12 14 1008.9 - 35.4 - - - - - - -
26/02:30am 26.6 E 11 14 1009.2 - 35.4 - - - - - - -
26/02:00am 26.6 E 12 16 1009.3 - 35.4 - - - - - - -
26/01:30am 26.6 ENE 11 12 1009.5 - 35.4 - - - - - - -
26/01:00am 26.5 E 11 15 1009.9 - 35.4 - - - - - - -
26/12:30am 26.5 E 12 15 1010.1 - 35.4 - - - - - - -
26/12:00am 26.4 E 12 15 1010.3 - 35.4 - - - - - - -
 
Date/Time
CST
Temp
°C
Wind Pressure Rain since
9am
mm
Weather Cloud Vis
km
Sea
Height
m
Swell
Dir  Spd
kts
Gust
kts
hPa Trend Height
m
Period
s
Dir
25/11:30pm 26.3 ENE 12 14 1010.2 - 35.4 - - - - - - -
25/11:00pm 26.2 ENE 12 15 1010.3 - 35.4 - - - - - - -
25/10:30pm 26.1 E 13 16 1010.5 - 35.4 - - - - - - -
25/10:00pm 25.7 E 11 15 1010.5 - 35.4 - - - - - - -
25/09:30pm 25.8 ENE 13 15 1010.7 - 35.4 - - - - - - -
25/09:00pm 25.7 ENE 13 16 1010.8 - 35.4 - - - - - - -
25/08:30pm 25.6 ENE 9 11 1010.4 - 35.4 - - - - - - -
25/08:00pm 25.5 E 11 13 1010.1 - 35.4 - - - - - - -
25/07:30pm 25.4 ENE 7 9 1009.5 - 35.4 - - - - - - -
25/07:00pm 25.3 ENE 7 8 1009.0 - 35.4 - - - - - - -
25/06:30pm 25.4 E 6 7 1008.8 - 35.4 - - - - - - -
25/06:00pm 25.4 E 8 10 1008.8 - 35.2 - - - - - - -
25/05:30pm 25.4 SE 11 13 1008.9 - 35.2 - - - - - - -
25/05:00pm 25.6 SE 11 14 1008.7 - 35.2 - - - - - - -
25/04:30pm 25.3 SSE 10 13 1008.7 - 35.2 - - - - - - -
25/04:00pm 24.9 SSW 8 10 1008.2 - 35.2 - - - - - - -
25/03:30pm 25.0 SSE 10 14 1008.4 - 35.0 - - - - - - -
25/03:00pm 24.9 SSE 7 9 1008.0 - 34.8 Recent precip. - - - - - -
25/02:30pm 24.8 SSW 9 11 1008.5 - 34.8 - - - - - - -
25/02:00pm 25.2 S 7 9 1009.0 - 34.6 - - - - - - -
25/01:30pm 25.2 ESE 7 9 1009.9 - 34.0 - - - - - - -
25/01:00pm 25.4 ESE 8 9 1010.2 - 31.8 - - - - - - -
25/12:30pm 25.5 SE 10 12 1011.2 - 29.8 - - - - - - -
25/12:00pm 25.2 E 7 9 1011.5 - 27.8 Rain - - - - - -
25/11:30am 25.2 ESE 4 6 1011.5 - 27.6 - - - - - - -
25/11:00am 25.2 ENE 10 13 1011.9 - 26.8 - - - - - - -
25/10:30am 25.1 NE 13 20 1012.1 - 23.0 - - - - - - -
25/10:00am 25.1 ENE 9 11 1012.3 - 3.8 - - - - - - -
25/09:30am 25.5 ENE 13 18 1012.0 - 1.4 - - - - - - -
25/09:00am 25.4 ENE 16 22 1011.7 - 81.4 Rain - - - - - -
25/08:30am 25.2 ENE 17 22 1011.2 - 80.2 - - - - - - -
25/08:00am 26.1 ENE 16 22 1011.0 - 79.0 - - - - - - -
25/07:30am 25.9 ENE 15 22 1010.7 - 78.2 - - - - - - -
25/07:00am 25.1 ENE 18 23 1010.1 - 77.8 - - - - - - -
25/06:30am 24.8 E 18 22 1010.1 - 77.0 - - - - - - -
25/06:11am 25.4 ESE 11 25 1009.9 - 68.8 - - - - - - -
25/06:00am 26.0 E 10 13 1009.7 - 66.8 Recent precip. - - - - - -
25/05:30am 25.7 E 13 17 1009.3 - 66.4 - - - - - - -
25/05:00am 25.2 E 19 25 1009.0 - 65.0 - - - - - - -
25/04:30am 25.8 E 13 17 1008.5 - 65.0 - - - - - - -
25/04:00am 25.3 ENE 13 19 1008.9 - 64.4 - - - - - - -
25/03:30am 25.5 ENE 22 31 1009.0 - 63.8 - - - - - - -
25/03:22am 25.9 E 20 33 1008.9 - 63.4 - - - - - - -
25/03:18am 26.7 ESE 17 28 1008.8 - 63.4 - - - - - - -
25/03:00am 27.3 SE 15 19 1008.5 - 63.4 - - - - - - -
25/02:30am 27.3 ESE 15 20 1008.8 - 63.4 - - - - - - -
25/02:00am 27.4 ESE 16 21 1008.8 - 63.4 - - - - - - -
25/01:30am 27.4 ESE 17 22 1008.7 - 63.4 - - - - - - -
25/01:00am 27.4 ESE 16 19 1009.6 - 63.4 - - - - - - -
25/12:30am 27.4 ESE 14 17 1009.7 - 63.4 - - - - - - -
25/12:00am 27.4 SE 17 22 1010.1 - 63.4 - - - - - - -
 
Date/Time
CST
Temp
°C
Wind Pressure Rain since
9am
mm
Weather Cloud Vis
km
Sea
Height
m
Swell
Dir  Spd
kts
Gust
kts
hPa Trend Height
m
Period
s
Dir
24/11:30pm 27.3 SE 15 19 1010.2 - 63.4 - - - - - - -
24/11:00pm 27.2 SE 16 19 1010.4 - 63.4 - - - - - - -
24/10:30pm 27.3 ESE 17 20 1010.7 - 63.4 - - - - - - -
24/10:00pm 27.2 ESE 17 21 1011.0 - 63.4 - - - - - - -
24/09:30pm 27.0 SE 16 20 1011.2 - 63.4 - - - - - - -
24/09:00pm 27.0 ESE 18 23 1011.3 - 63.4 Recent precip. - - - - - -
24/08:30pm 26.6 ESE 17 21 1011.2 - 63.0 - - - - - - -
24/08:00pm 26.0 ESE 14 21 1010.6 - 63.0 - - - - - - -
24/07:30pm 25.9 ENE 13 21 1010.3 - 61.4 - - - - - - -
24/07:00pm 26.0 ENE 12 15 1010.1 - 59.2 - - - - - - -
24/06:30pm 25.2 NE 13 16 1010.0 - 58.4 - - - - - - -
24/06:00pm 25.2 NE 19 26 1009.9 - 56.0 Rain - - - - - -
24/05:38pm 24.8 NE 18 27 1009.5 - 47.0 - - - - - - -
24/05:30pm 25.2 ENE 12 18 1009.6 - 43.8 - - - - - - -
24/05:00pm 25.1 NE 16 23 1009.2 - 31.4 - - - - - - -
24/04:43pm 26.2 ENE 15 28 1009.0 - 22.8 - - - - - - -
24/04:30pm 26.7 E 12 16 1008.7 - 21.8 - - - - - - -
24/04:00pm 26.4 E 12 14 1008.5 - 21.8 - - - - - - -
24/03:30pm 25.9 E 15 20 1008.4 - 21.8 - - - - - - -
24/03:00pm 25.4 E 18 23 1008.5 - 21.8 - - - - - - -
24/02:30pm 25.6 ENE 20 27 1009.6 - 21.8 - - - - - - -
24/02:00pm 25.7 ENE 18 25 1009.4 - 21.8 - - - - - - -
24/01:30pm 25.7 ENE 18 23 1009.5 - 21.8 - - - - - - -
24/01:00pm 25.3 ENE 19 25 1010.1 - 21.8 - - - - - - -
24/12:30pm 25.0 ENE 22 35 1010.7 - 20.8 - - - - - - -
24/12:24pm 24.9 ENE 23 33 1011.2 - 19.4 - - - - - - -
24/12:21pm 24.8 ENE 25 37 1011.2 - 17.0 - - - - - - -
24/12:13pm 26.0 E 21 37 1011.0 - 12.8 - - - - - - -
24/12:07pm 26.6 E 14 23 1010.7 - 12.8 - - - - - - -
24/12:00pm 26.6 ENE 10 13 1010.7 - 12.8 Recent precip. - - - - - -
24/11:30am 25.6 E 13 21 1011.3 - 12.8 - - - - - - -
24/11:05am 26.2 ESE 17 28 1011.6 - 4.2 - - - - - - -
24/11:00am 26.1 ESE 18 23 1011.5 - 4.2 - - - - - - -
24/10:30am 25.8 SE 17 22 1011.6 - 3.4 - - - - - - -
24/10:00am 25.7 ESE 23 30 1011.9 - 3.2 - - - - - - -
24/09:30am 26.0 E 18 27 1011.6 - 2.2 - - - - - - -
24/09:29am 26.1 E 17 27 1011.6 - 1.6 - - - - - - -
24/09:00am 26.2 ESE 17 21 1011.3 - 79.0 Recent precip. - - - - - -
24/08:30am 25.9 E 17 21 1011.3 - 78.8 - - - - - - -
24/08:00am 25.1 E 22 26 1011.4 - 77.4 - - - - - - -
24/07:30am 25.7 ESE 23 29 1011.0 - 76.2 - - - - - - -
24/07:00am 25.0 ESE 25 30 1010.5 - 75.8 - - - - - - -
24/06:36am 25.0 ESE 24 34 1010.1 - 75.6 - - - - - - -
24/06:30am 24.6 ESE 27 34 1009.9 - 74.8 - - - - - - -
24/06:12am 25.0 E 21 34 1009.7 - 73.6 - - - - - - -
24/06:00am 25.1 E 21 26 1009.5 - 73.2 Recent precip. - - - - - -
24/05:42am 25.6 ESE 20 30 1009.4 - 73.0 - - - - - - -
24/05:30am 25.6 ESE 18 23 1009.4 - 72.8 - - - - - - -
24/05:00am 24.4 E 23 31 1009.6 - 71.2 - - - - - - -
24/04:58am 24.3 E 24 32 1009.6 - 71.0 - - - - - - -
24/04:30am 24.9 ESE 20 24 1009.5 - 67.2 - - - - - - -
24/04:00am 24.6 ESE 13 17 1009.9 - 60.8 - - - - - - -
24/03:30am 24.9 E 17 25 1009.8 - 41.4 - - - - - - -
24/03:23am 24.5 E 21 31 1009.8 - 36.6 - - - - - - -
24/03:05am 26.5 ESE 19 28 1009.4 - 25.8 - - - - - - -
24/03:00am 27.2 SE 19 23 1009.1 - 25.8 Recent precip. - - - - - -
24/02:30am 26.9 SE 17 23 1009.2 - 25.6 - - - - - - -
24/02:00am 26.0 SSE 13 21 1009.4 - 25.6 - - - - - - -
24/01:30am 26.8 SSE 15 19 1009.7 - 25.4 - - - - - - -
24/01:00am 26.9 SE 17 21 1010.3 - 25.4 - - - - - - -
24/12:30am 26.7 SSE 15 21 1010.4 - 25.4 - - - - - - -
24/12:00am 26.5 SSE 13 17 1010.8 - 25.4 Recent precip. - - - - - -
 
Date/Time
CST
Temp
°C
Wind Pressure Rain since
9am
mm
Weather Cloud Vis
km
Sea
Height
m
Swell
Dir  Spd
kts
Gust
kts
hPa Trend Height
m
Period
s
Dir
23/11:30pm 26.4 SE 16 23 1011.2 - 25.2 - - - - - - -
23/11:00pm 25.8 SSE 16 21 1011.0 - 24.4 - - - - - - -
23/10:30pm 26.0 SE 17 22 1011.5 - 24.2 - - - - - - -
23/10:00pm 26.2 SE 19 23 1011.7 - 24.0 - - - - - - -
23/09:30pm 25.1 SE 23 32 1011.9 - 23.6 - - - - - - -
23/09:18pm 26.5 SE 17 26 1011.8 - 11.2 - - - - - - -
23/09:00pm 26.4 SSE 18 21 1011.4 - 10.2 - - - - - - -
23/08:30pm 26.2 SE 18 24 1011.2 - 10.2 - - - - - - -
23/08:00pm 25.9 SE 18 23 1010.7 - 10.2 - - - - - - -
23/07:47pm 26.1 SE 21 34 1010.6 - 8.0 - - - - - - -
23/07:30pm 27.9 SE 19 25 1009.9 - 4.6 - - - - - - -
23/07:00pm 27.8 SE 17 21 1009.7 - 4.6 - - - - - - -
23/06:30pm 27.9 ESE 19 22 1009.5 - 4.6 - - - - - - -
23/06:00pm 27.9 SE 20 25 1009.2 - 4.6 - - - - - - -
23/05:30pm 27.8 SE 19 24 1008.8 - 4.6 - - - - - - -
23/05:00pm 27.5 SE 18 23 1008.6 - 4.6 - - - - - - -
23/04:30pm 27.2 SE 17 21 1008.5 - 4.6 - - - - - - -
23/04:00pm 25.8 ESE 15 23 1008.5 - 4.6 - - - - - - -

Other Formats:

Comma delimited format used in spreadsheet applications
http://www.bom.gov.au/fwo/IDD60701/IDD60701.94147.axf

JavaScript Object Notation format (JSON) in row-major order
http://www.bom.gov.au/fwo/IDD60701/IDD60701.94147.json